Flight Track Log - Related Links

Times and Time Zones

All times are in EDT time to prevent confusion due to time zone crossing. See the BVN7571 flight status page for this flight to view local times or setup timezone preferences in your user account.

Time Position Orientation Groundspeed Altitude Reporting Facility
EDT Latitude Longitude Course Direction KTS MPH feet Rate Location/Type
Fri 08:11:14 PM 40.7614 -98.8936 75° East 120 138 4,500  Level Minneapolis Center
Fri 08:12:16 PM 40.7706 -98.8472 75° East 124 143 5,100 629 Climbing Minneapolis Center
Fri 08:13:18 PM 40.7803 -98.7997 75° East 130 150 5,800 683 Climbing Minneapolis Center
Fri 08:14:19 PM 40.7886 -98.7508 77° East 134 154 6,500 585 Climbing Minneapolis Center
Fri 08:15:21 PM 40.7997 -98.6908 76° East 138 159 7,000 242 Climbing Minneapolis Center
Fri 08:16:00 PM 40.7957 -98.6612 75° East  Level Estimated
Fri 08:16:23 PM 40.8108 -98.6342 75° East 147 169 7,000  Level Minneapolis Center
Fri 08:17:25 PM 40.8214 -98.5731 77° East 160 184 7,000  Level Minneapolis Center
Fri 08:18:38 PM 40.8333 -98.5161 74° East 163 188 7,000  Level Minneapolis Center
Fri 08:19:40 PM 40.8467 -98.4478 76° East 162 186 7,000  Level Minneapolis Center
Fri 08:20:42 PM 40.8581 -98.3911 75° East 161 185 7,000  Level Minneapolis Center
Fri 08:21:44 PM 40.8689 -98.3339 76° East 161 185 7,000  Level Minneapolis Center
Fri 08:22:45 PM 40.8819 -98.2664 76° East 160 184 7,000  Level Minneapolis Center
Fri 08:23:47 PM 40.8906 -98.2206 76° East 160 184 7,000  Level Minneapolis Center
Fri 08:24:49 PM 40.9033 -98.1506 76° East 162 186 7,000  Level Minneapolis Center
Fri 08:25:51 PM 40.9136 -98.0925 77° East 162 186 7,000  Level Minneapolis Center
Fri 08:26:52 PM 40.9244 -98.0336 76° East 163 188 7,000  Level Minneapolis Center
Fri 08:27:54 PM 40.9361 -97.9758 75° East 163 188 7,000  Level Minneapolis Center
Fri 08:29:08 PM 40.9506 -97.8950 77° East 162 186 7,000  Level Minneapolis Center
Fri 08:30:22 PM 40.9614 -97.8375 76° East 162 186 7,000  Level Minneapolis Center
Fri 08:31:25 PM 40.9750 -97.7681 75° East 162 186 7,000 -48 Level Minneapolis Center
Fri 08:32:26 PM 40.9853 -97.7089 77° East 163 188 6,900 -44 Descending Minneapolis Center
Fri 08:33:40 PM 40.9958 -97.6500 77° East 164 189 6,900  Level Minneapolis Center
Fri 08:34:42 PM 41.0083 -97.5836 76° East 159 183 6,900  Level Minneapolis Center
Fri 08:35:27 PM 40.9947 -97.5353 110° East 159 183 6,900  Level Minneapolis Center
Fri 08:36:46 PM 41.0311 -97.4572 58° Northeast 160 184 6,900  Level Minneapolis Center
Fri 08:37:40 PM 41.0194 -97.4064 107° East 159 183 6,900  Level Minneapolis Center
Fri 08:38:41 PM 41.0308 -97.3472 76° East 159 183 6,900  Level Minneapolis Center
Fri 08:39:17 PM 41.0375 -97.3136 75° East 160 184 6,900  Level Minneapolis Center
Fri 08:39:52 PM 41.0606 -97.2878 40° Northeast 158 182 6,900  Level Minneapolis Center
Fri 08:40:54 PM 41.0714 -97.2300 76° East 159 183 6,900  Level Minneapolis Center
Fri 08:41:56 PM 41.0814 -97.1728 77° East 160 184 6,900  Level Minneapolis Center
Fri 08:42:58 PM 41.0914 -97.1158 77° East 160 184 6,900  Level Minneapolis Center
Fri 08:44:12 PM 41.1036 -97.0475 77° East 159 183 6,900  Level Minneapolis Center
Fri 08:45:14 PM 41.1136 -96.9900 77° East 159 183 6,900  Level Minneapolis Center
Fri 08:46:16 PM 41.1250 -96.9214 78° East 160 184 6,900  Level Minneapolis Center
Fri 08:47:18 PM 41.1358 -96.8647 76° East 159 183 6,900  Level Minneapolis Center
Fri 08:48:20 PM 41.1453 -96.8081 78° East 158 182 6,900  Level Minneapolis Center
Fri 08:49:24 PM 41.1472 -96.7419 88° East 153 176 6,900  Level Minneapolis Center
Fri 08:50:18 PM 41.1569 -96.6911 76° East 158 182 6,900  Level Minneapolis Center
Fri 08:51:31 PM 41.1694 -96.6206 77° East 163 188 6,900  Level Minneapolis Center
Fri 08:52:25 PM 41.1789 -96.5697 76° East 169 194 6,900 -52 Level Minneapolis Center
Fri 08:53:26 PM 41.1917 -96.5047 75° East 165 190 6,800 -179 Descending Minneapolis Center
Fri 08:54:39 PM 41.2064 -96.4367 74° East 173 199 6,500 -328 Descending Minneapolis Center
Fri 08:55:34 PM 41.2153 -96.3775 79° East 173 199 6,100 -313 Descending Minneapolis Center
Fri 08:56:34 PM 41.2261 -96.3156 77° East 172 198 5,900 -496 Descending Minneapolis Center
Fri 08:57:35 PM 41.2386 -96.2503 76° East 179 206 5,100 -694 Descending Minneapolis Center
Fri 08:58:35 PM 41.2511 -96.1825 76° East 182 209 4,500 -614 Descending Minneapolis Center
Fri 08:59:42 PM 41.2547 -96.1100 86° East 183 211 3,800 -724 Descending Minneapolis Center
Fri 09:00:31 PM 41.2556 -96.0572 89° East 185 213 3,100 -716 Descending Minneapolis Center
Fri 09:01:31 PM 41.2594 -95.9875 86° East 177 204 2,500 -645 Descending Minneapolis Center
Fri 09:02:32 PM 41.2700 -95.9253 77° East 173 199 1,800 -659 Descending Minneapolis Center
Fri 09:03:02 PM 41.2764 -95.8972 73° East 176 203 1,500 -522 Descending Minneapolis Center
Fri 09:04:04 PM 41.3033 -95.8967 North 144 166 1,000 -484 Descending Minneapolis Center

Login

Don't have an account? Register now (free) for customized features, flight alerts, and more!